This is the latest recevied weather packets stored in our database for station/object Wangen. If no packets are shown the sender has not sent any weather packets the latest 10 day(s).
| Time | Temp. | Humidity | Pressure | Rain* | Wind** | Luminosity | Snow |
|---|---|---|---|---|---|---|---|
| 1778016731 | 11.11° C | 94% | 1008.4 hPa | 3.3 mm | - | - | - |
| 1778014935 | 11.11° C | 93% | 1008.4 hPa | 3.05 mm | - | - | - |
| 1778013129 | 11.67° C | 93% | 1008.5 hPa | 3.05 mm | - | - | - |
| 1778011330 | 11.67° C | 93% | 1008.4 hPa | 3.05 mm | - | - | - |
| 1778009529 | 11.67° C | 92% | 1008.5 hPa | 3.05 mm | - | - | - |
| 1778007735 | 12.22° C | 92% | 1008.3 hPa | 2.79 mm | - | - | - |
| 1778005932 | 12.78° C | 89% | 1008.1 hPa | 1.52 mm | - | - | - |
| 1778004131 | 14.44° C | 89% | 1006.8 hPa | 0.76 mm | - | - | - |
| 1778002330 | 14.44° C | 87% | 1006.5 hPa | 0.25 mm | - | - | - |
| 1778000530 | 15° C | 86% | 1006.1 hPa | 0.25 mm | - | - | - |
| 1777998731 | 15.56° C | 85% | 1005.9 hPa | 0.25 mm | - | - | - |
| 1777995130 | 15° C | 87% | 1005.4 hPa | 0.25 mm | - | - | - |
| 1777993336 | 16.11° C | 78% | 1005.9 hPa | 0 mm | - | - | - |
| 1777991532 | 18.33° C | 66% | 1005.6 hPa | 0 mm | - | - | - |
| 1777989730 | 18.33° C | 65% | 1005.6 hPa | 0 mm | - | - | - |
| 1777987930 | 17.22° C | 67% | 1005.8 hPa | 0 mm | - | - | - |
| 1777986130 | 17.22° C | 67% | 1005.9 hPa | 0 mm | - | - | - |
| 1777984330 | 16.67° C | 69% | 1006.1 hPa | 0 mm | - | - | - |
| 1777982530 | 15.56° C | 76% | 1006.4 hPa | 0 mm | - | - | - |
| 1777980730 | 15° C | 77% | 1006.4 hPa | 0 mm | - | - | - |
| 1777978931 | 14.44° C | 79% | 1006.8 hPa | 0 mm | - | - | - |
| 1777977131 | 14.44° C | 77% | 1006.8 hPa | 0 mm | - | - | - |
| 1777975332 | 15° C | 78% | 1006.6 hPa | 0 mm | - | - | - |
| 1777973532 | 15° C | 79% | 1006.7 hPa | 0 mm | - | - | - |
| 1777971732 | 15.56° C | 78% | 1006.7 hPa | 0 mm | - | - | - |
* Rain since midnight (hover to see other rain measurements)
** Current wind speed in m/s (hover to see current wind gust speed)